Nearby METAR Reports


KANE - Minneapls/Blaine, Minnesota, USA
Distance from station: ESE 8mi, 13km
Updated: 07/11/2020 10:17pm
Clear
Clear
 Wind from W
Wind: W 3 mph , 6 km/h
Temperature: 72°F , 22°C
Dew Point: 61°F , 16°C
Humidity: 69%
Barometer: 29.92 inHg , 1013.2 hPa
Clouds: Clear
Visibility: 10 miles , 16 km
2020/07/12 03:17 KANE 120317Z AUTO 26003KT 10SM CLR 22/16 A2992 RMK AO2
KMIC - Mnpls/Crystal, Minnesota, USA
Distance from station: S 8mi, 14km
Updated: 07/11/2020 9:53pm
Clear
Clear
 Wind from calm
Wind: Calm
Temperature: 70°F , 21°C
Dew Point: 61°F , 16°C
Humidity: 73%
Barometer: 29.91 inHg , 1012.9 hPa
Clouds: Clear
Visibility: 10 miles , 16 km
2020/07/12 02:53 KMIC 120253Z AUTO 00000KT 10SM CLR 21/16 A2991 RMK AO2 SLP122 T02060156 53008
 
KMSP - Minneapolis, Minnesota, USA
Distance from station: SSE 22mi, 35km
Updated: 07/11/2020 9:53pm
Few Clouds
Few Clouds
 Wind from WSW
Wind: WSW 5 mph , 7 km/h
Temperature: 66°F , 19°C
Dew Point: 63°F , 17°C
Humidity: 88%
Barometer: 29.92 inHg , 1013.2 hPa
Clouds: Few Clouds
Visibility: 10 miles , 16 km
Cloud details: Few Clouds 12000 ft
2020/07/12 02:53 KMSP 120253Z 25004KT 10SM FEW120 19/17 A2992 RMK AO2 SLP128 60003 T01940167 53009
KSTP - St. Paul, Minnesota, USA
Distance from station: SE 23mi, 38km
Updated: 07/11/2020 9:53pm
Clear
Clear
 Wind from W
Wind: W 7 mph , 11 km/h
Temperature: 70°F , 21°C
Dew Point: 59°F , 15°C
Humidity: 69%
Barometer: 29.91 inHg , 1012.9 hPa
Clouds: Clear
Visibility: 10 miles , 16 km
2020/07/12 02:53 KSTP 120253Z AUTO 28006KT 10SM CLR 21/15 A2991 RMK AO2 SLP123 T02060150 53007
 
KCFE - Buffalo Muni, Minnesota, USA
Distance from station: W 24mi, 38km
Updated: 07/11/2020 10:15pm
Clear
Clear
 
Temperature: 72°F , 22°C
Dew Point: 61°F , 16°C
Humidity: 69%
Barometer: 29.95 inHg , 1014.2 hPa
Clouds: Clear
Visibility: 10 miles , 16 km
2020/07/12 03:15 KCFE 120315Z 10SM CLR 22/16 A2995 RMK AO2 T02200158
KFCM - Mnpls/Flying Cld, Minnesota, USA
Distance from station: S 25mi, 40km
Updated: 07/11/2020 9:53pm
Clear
Clear
 Wind from calm
Wind: Calm
Temperature: 64°F , 18°C
Dew Point: 63°F , 17°C
Humidity: 94%
Barometer: 29.91 inHg , 1012.9 hPa
Clouds: Clear
Visibility: 10 miles , 16 km
2020/07/12 02:53 KFCM 120253Z AUTO 00000KT 10SM CLR 18/17 A2991 RMK AO2 SLP125 60039 T01830167 53005
 
KCBG - Cambridge Muni, Minnesota, USA
Distance from station: N 27mi, 43km
Updated: 07/11/2020 10:16pm
Partly cloudy
Partly cloudy
 Wind from calm
Wind: Calm
Temperature: 70°F , 21°C
Dew Point: 57°F , 14°C
Humidity: 64%
Barometer: 29.93 inHg , 1013.5 hPa
Clouds: Partly cloudy
Visibility: 10 miles , 16 km
Cloud details: Partly cloudy 8000 ft
2020/07/12 03:16 KCBG 120316Z AUTO 00000KT 10SM SCT080 21/14 A2993 RMK AO2
KPNM - Princeton Muni, Minnesota, USA
Distance from station: NNW 27mi, 44km
Updated: 07/11/2020 10:16pm
Overcast
Overcast
 Wind from W
Wind: W 5 mph , 7 km/h
Temperature: 72°F , 22°C
Dew Point: 64°F , 18°C
Humidity: 78%
Barometer: 29.94 inHg , 1013.9 hPa
Clouds: Overcast
Visibility: 10 miles , 16 km
Cloud details: Partly cloudy 7000 ft
Overcast 8000 ft
2020/07/12 03:16 KPNM 120316Z AUTO 28004KT 10SM SCT070 OVC080 22/18 A2994 RMK AO2
 
K21D - Lake Elmo, Minnesota, USA
Distance from station: ESE 28mi, 46km
Updated: 07/11/2020 10:15pm
Clear
Clear
 Wind from W
Wind: W 3 mph , 6 km/h
Temperature: 66°F , 19°C
Dew Point: 59°F , 15°C
Humidity: 78%
Barometer: 29.92 inHg , 1013.2 hPa
Clouds: Clear
Visibility: 10 miles , 16 km
2020/07/12 03:15 K21D 120315Z AUTO 27003KT 10SM CLR 19/15 A2992 RMK AO2
KSGS - South St Paul, Minnesota, USA
Distance from station: SE 28mi, 46km
Updated: 07/11/2020 10:15pm
Clear
Clear
 Wind from calm
Wind: Calm
Temperature: 68°F , 20°C
Dew Point: 61°F , 16°C
Humidity: 78%
Barometer: 29.92 inHg , 1013.2 hPa
Clouds: Clear
Visibility: 10 miles , 16 km
2020/07/12 03:15 KSGS 120315Z AUTO 00000KT 10SM CLR 20/16 A2992 RMK AO2 T02010160
 
KMGG - Maple Lake, Minnesota, USA
Distance from station: W 30mi, 48km
Updated: 07/11/2020 9:58pm

 Wind from WNW
Wind: WNW 5 mph , 7 km/h
Temperature: 68°F , 20°C
Dew Point: 64°F , 18°C
Humidity: 88%
Barometer: 29.95 inHg , 1014.2 hPa
Visibility: 10 miles , 16 km
2020/07/12 02:58 KMGG 120258Z AUTO 30004KT 10SM 20/18 A2995 RMK AO2 T02010179
KOEO - Osceola, Wisconsin, USA
Distance from station: ENE 34mi, 55km
Updated: 07/11/2020 9:55pm
Clear
Clear
 Wind from calm
Wind: Calm
Temperature: 72°F , 22°C
Dew Point: 61°F , 16°C
Humidity: 69%
Barometer: 29.94 inHg , 1013.9 hPa
Clouds: Clear
Visibility: 10 miles , 16 km
2020/07/12 02:55 KOEO 120255Z AUTO 00000KT 10SM CLR 22/16 A2994 RMK AO2 T02200160
 
KLVN - Mnpls/Airlake, Minnesota, USA
Distance from station: S 39mi, 63km
Updated: 07/11/2020 10:15pm
Clear
Clear
 Wind from W
Wind: W 5 mph , 7 km/h
Temperature: 64°F , 18°C
Dew Point: 64°F , 18°C
Humidity: 100%
Barometer: 29.92 inHg , 1013.2 hPa
Clouds: Clear
Visibility: 10 miles , 16 km
2020/07/12 03:15 KLVN 120315Z AUTO 28004KT 10SM CLR 18/18 A2992 RMK AO2
KRNH - New Richmond Mun, Wisconsin, USA
Distance from station: E 41mi, 66km
Updated: 07/11/2020 9:55pm
Clear
Clear
 Wind from NW
Wind: NW 5 mph , 7 km/h
Temperature: 66°F , 19°C
Dew Point: 61°F , 16°C
Humidity: 83%
Barometer: 29.92 inHg , 1013.2 hPa
Clouds: Clear
Visibility: 10 miles , 16 km
2020/07/12 02:55 KRNH 120255Z AUTO 31004KT 10SM CLR 19/16 A2992 RMK AO2 T01920158
 
KROS - Rush City, Minnesota, USA
Distance from station: NNE 41mi, 66km
Updated: 07/10/2020 12:42pm
NOT Current
Clear
Clear
 Wind from WNW
Wind: WNW 7 mph , 11 km/h
Temperature: 77°F , 25°C
Dew Point: 61°F , 16°C
Humidity: 57%
Barometer: 29.94 inHg , 1013.9 hPa
Clouds: Clear
Visibility: 10 miles , 16 km
2020/07/10 17:42 KROS 101742Z AUTO 29006KT 10SM CLR 25/16 A2994 RMK AO2
KSTC - St. Cloud, Minnesota, USA
Distance from station: NW 41mi, 67km
Updated: 07/11/2020 9:53pm
Clear
Clear
 Wind from NW
Wind: NW 3 mph , 6 km/h
Temperature: 66°F , 19°C
Dew Point: 61°F , 16°C
Humidity: 83%
Barometer: 29.94 inHg , 1013.9 hPa
Clouds: Clear
Visibility: 10 miles , 16 km
2020/07/12 02:53 KSTC 120253Z 32003KT 10SM CLR 19/16 A2994 RMK AO2 SLP141 T01940156 53011
 
KGYL - Glencoe, Minnesota, USA
Distance from station: SW 46mi, 74km
Updated: 07/11/2020 10:16pm
Clear
Clear
 Wind from calm
Wind: Calm
Temperature: 68°F , 20°C
Dew Point: 64°F , 18°C
Humidity: 88%
Barometer: 29.94 inHg , 1013.9 hPa
Clouds: Clear
Visibility: 10 miles , 16 km
2020/07/12 03:16 KGYL 120316Z AUTO 00000KT 10SM CLR 20/18 A2994 RMK AO2 T02010176
KJMR - Mora, Minnesota, USA
Distance from station: N 48mi, 78km
Updated: 07/11/2020 10:16pm
Clear
Clear
 Wind from calm
Wind: Calm
Temperature: 64°F , 18°C
Dew Point: 61°F , 16°C
Humidity: 88%
Barometer: 29.95 inHg , 1014.2 hPa
Clouds: Clear
Visibility: 10 miles , 16 km
2020/07/12 03:16 KJMR 120316Z AUTO 00000KT 10SM CLR 18/16 A2995 RMK AO2